sensor_id;sensor_type;location;lat;lon;timestamp;pressure;altitude;pressure_sealevel;temperature
27826;BMP280;15077;49.704;9.908;2023-06-24T00:02:11;99030.53;;;22.22
27826;BMP280;15077;49.704;9.908;2023-06-24T00:04:37;99038.50;;;22.19
27826;BMP280;15077;49.704;9.908;2023-06-24T00:07:03;99032.00;;;22.13
27826;BMP280;15077;49.704;9.908;2023-06-24T00:09:29;99037.38;;;22.10
27826;BMP280;15077;49.704;9.908;2023-06-24T00:11:58;99035.84;;;22.08
27826;BMP280;15077;49.704;9.908;2023-06-24T00:14:30;99039.59;;;22.04
27826;BMP280;15077;49.704;9.908;2023-06-24T00:16:57;99035.69;;;21.98
27826;BMP280;15077;49.704;9.908;2023-06-24T00:19:26;99031.66;;;21.94
27826;BMP280;15077;49.704;9.908;2023-06-24T00:21:53;99036.22;;;21.91
27826;BMP280;15077;49.704;9.908;2023-06-24T00:24:21;99033.88;;;21.88
27826;BMP280;15077;49.704;9.908;2023-06-24T00:26:52;99030.78;;;21.83
27826;BMP280;15077;49.704;9.908;2023-06-24T00:29:20;99031.00;;;21.80
27826;BMP280;15077;49.704;9.908;2023-06-24T00:31:47;99033.72;;;21.79
27826;BMP280;15077;49.704;9.908;2023-06-24T00:34:13;99041.44;;;21.79
27826;BMP280;15077;49.704;9.908;2023-06-24T00:36:39;99040.72;;;21.77
27826;BMP280;15077;49.704;9.908;2023-06-24T00:39:07;99037.44;;;21.75
27826;BMP280;15077;49.704;9.908;2023-06-24T00:41:35;99037.63;;;21.72
27826;BMP280;15077;49.704;9.908;2023-06-24T00:44:03;99034.34;;;21.70
27826;BMP280;15077;49.704;9.908;2023-06-24T00:46:29;99034.47;;;21.68
27826;BMP280;15077;49.704;9.908;2023-06-24T00:48:58;99036.31;;;21.66
27826;BMP280;15077;49.704;9.908;2023-06-24T00:51:25;99030.03;;;21.58
27826;BMP280;15077;49.704;9.908;2023-06-24T00:53:53;99026.34;;;21.49
27826;BMP280;15077;49.704;9.908;2023-06-24T00:56:27;99024.28;;;21.42
27826;BMP280;15077;49.704;9.908;2023-06-24T00:58:58;99022.22;;;21.35
27826;BMP280;15077;49.704;9.908;2023-06-24T01:01:30;99032.97;;;21.29
27826;BMP280;15077;49.704;9.908;2023-06-24T01:04:01;99026.34;;;21.25
27826;BMP280;15077;49.704;9.908;2023-06-24T01:06:30;99021.31;;;21.23
27826;BMP280;15077;49.704;9.908;2023-06-24T01:09:00;99027.59;;;21.19
27826;BMP280;15077;49.704;9.908;2023-06-24T01:11:30;99018.31;;;21.17
27826;BMP280;15077;49.704;9.908;2023-06-24T01:13:58;99016.69;;;21.16
27826;BMP280;15077;49.704;9.908;2023-06-24T01:16:43;99016.69;;;21.16
27826;BMP280;15077;49.704;9.908;2023-06-24T01:19:50;99018.44;;;21.03
27826;BMP280;15077;49.704;9.908;2023-06-24T01:25:56;99021.44;;;20.85
27826;BMP280;15077;49.704;9.908;2023-06-24T01:32:00;99016.50;;;20.82
27826;BMP280;15077;49.704;9.908;2023-06-24T01:35:07;99005.94;;;20.72
27826;BMP280;15077;49.704;9.908;2023-06-24T01:37:47;99000.38;;;20.78
27826;BMP280;15077;49.704;9.908;2023-06-24T01:40:41;98999.78;;;20.75
27826;BMP280;15077;49.704;9.908;2023-06-24T01:43:12;98998.56;;;20.80
27826;BMP280;15077;49.704;9.908;2023-06-24T01:45:50;98992.25;;;20.84
27826;BMP280;15077;49.704;9.908;2023-06-24T01:48:35;98990.72;;;20.82
27826;BMP280;15077;49.704;9.908;2023-06-24T01:51:09;98999.78;;;20.87
27826;BMP280;15077;49.704;9.908;2023-06-24T01:53:42;98997.94;;;20.89
27826;BMP280;15077;49.704;9.908;2023-06-24T01:56:15;98997.00;;;20.90
27826;BMP280;15077;49.704;9.908;2023-06-24T01:58:45;98999.56;;;20.90
27826;BMP280;15077;49.704;9.908;2023-06-24T02:01:14;99002.88;;;20.92
27826;BMP280;15077;49.704;9.908;2023-06-24T02:03:43;99007.94;;;20.94
27826;BMP280;15077;49.704;9.908;2023-06-24T02:06:14;99001.81;;;20.94
27826;BMP280;15077;49.704;9.908;2023-06-24T02:08:41;99008.75;;;20.94
27826;BMP280;15077;49.704;9.908;2023-06-24T02:11:10;99014.63;;;20.96
27826;BMP280;15077;49.704;9.908;2023-06-24T02:13:39;99009.47;;;20.96
27826;BMP280;15077;49.704;9.908;2023-06-24T02:16:08;99011.13;;;20.97
27826;BMP280;15077;49.704;9.908;2023-06-24T02:18:38;99013.78;;;20.95
27826;BMP280;15077;49.704;9.908;2023-06-24T02:21:10;99009.66;;;20.93
27826;BMP280;15077;49.704;9.908;2023-06-24T02:23:39;99013.19;;;20.92
27826;BMP280;15077;49.704;9.908;2023-06-24T02:26:06;99008.25;;;20.89
27826;BMP280;15077;49.704;9.908;2023-06-24T02:28:34;99005.66;;;20.89
27826;BMP280;15077;49.704;9.908;2023-06-24T02:31:09;99005.88;;;20.86
27826;BMP280;15077;49.704;9.908;2023-06-24T02:33:37;98997.41;;;20.84
27826;BMP280;15077;49.704;9.908;2023-06-24T02:36:04;99001.63;;;20.85
27826;BMP280;15077;49.704;9.908;2023-06-24T02:38:35;98992.13;;;20.86
27826;BMP280;15077;49.704;9.908;2023-06-24T02:41:03;98998.16;;;20.86
27826;BMP280;15077;49.704;9.908;2023-06-24T02:43:34;98993.81;;;20.87
27826;BMP280;15077;49.704;9.908;2023-06-24T02:46:03;98990.19;;;20.89
27826;BMP280;15077;49.704;9.908;2023-06-24T02:48:32;98989.25;;;20.90
27826;BMP280;15077;49.704;9.908;2023-06-24T02:51:02;98990.91;;;20.91
27826;BMP280;15077;49.704;9.908;2023-06-24T02:53:31;98992.56;;;20.92
27826;BMP280;15077;49.704;9.908;2023-06-24T02:55:58;98990.72;;;20.94
27826;BMP280;15077;49.704;9.908;2023-06-24T02:58:24;98994.19;;;20.93
27826;BMP280;15077;49.704;9.908;2023-06-24T03:01:01;98997.53;;;20.95
27826;BMP280;15077;49.704;9.908;2023-06-24T03:03:31;99006.16;;;20.94
27826;BMP280;15077;49.704;9.908;2023-06-24T03:05:57;99002.78;;;20.94
27826;BMP280;15077;49.704;9.908;2023-06-24T03:08:24;99001.00;;;20.94
27826;BMP280;15077;49.704;9.908;2023-06-24T03:10:56;99008.75;;;20.94
27826;BMP280;15077;49.704;9.908;2023-06-24T03:13:24;99003.69;;;20.93
27826;BMP280;15077;49.704;9.908;2023-06-24T03:15:52;99005.56;;;20.91
27826;BMP280;15077;49.704;9.908;2023-06-24T03:18:21;99010.81;;;20.89
27826;BMP280;15077;49.704;9.908;2023-06-24T03:20:49;99006.69;;;20.87
27826;BMP280;15077;49.704;9.908;2023-06-24T03:23:17;99011.13;;;20.85
27826;BMP280;15077;49.704;9.908;2023-06-24T03:25:43;99005.13;;;20.84
27826;BMP280;15077;49.704;9.908;2023-06-24T03:28:10;99012.97;;;20.83
27826;BMP280;15077;49.704;9.908;2023-06-24T03:30:38;99007.19;;;20.79
27826;BMP280;15077;49.704;9.908;2023-06-24T03:33:05;99010.69;;;20.78
27826;BMP280;15077;49.704;9.908;2023-06-24T03:35:31;99006.59;;;20.76
27826;BMP280;15077;49.704;9.908;2023-06-24T03:38:00;99012.56;;;20.76
27826;BMP280;15077;49.704;9.908;2023-06-24T03:40:26;99011.84;;;20.74
27826;BMP280;15077;49.704;9.908;2023-06-24T03:42:52;99008.44;;;20.74
27826;BMP280;15077;49.704;9.908;2023-06-24T03:45:18;99011.00;;;20.74
27826;BMP280;15077;49.704;9.908;2023-06-24T03:47:46;99011.09;;;20.72
27826;BMP280;15077;49.704;9.908;2023-06-24T03:50:11;99024.09;;;20.71
27826;BMP280;15077;49.704;9.908;2023-06-24T03:52:37;99028.44;;;20.70
27826;BMP280;15077;49.704;9.908;2023-06-24T03:55:05;99028.44;;;20.70
27826;BMP280;15077;49.704;9.908;2023-06-24T03:57:31;99025.19;;;20.67
27826;BMP280;15077;49.704;9.908;2023-06-24T03:59:57;99035.78;;;20.62
27826;BMP280;15077;49.704;9.908;2023-06-24T04:02:23;99040.13;;;20.62
27826;BMP280;15077;49.704;9.908;2023-06-24T04:04:49;99037.66;;;20.60
27826;BMP280;15077;49.704;9.908;2023-06-24T04:07:16;99035.19;;;20.59
27826;BMP280;15077;49.704;9.908;2023-06-24T04:09:55;99031.78;;;20.58
27826;BMP280;15077;49.704;9.908;2023-06-24T04:12:21;99037.75;;;20.59
27826;BMP280;15077;49.704;9.908;2023-06-24T04:14:47;99042.09;;;20.58
27826;BMP280;15077;49.704;9.908;2023-06-24T04:17:13;99046.28;;;20.59
27826;BMP280;15077;49.704;9.908;2023-06-24T04:19:39;99040.94;;;20.62
27826;BMP280;15077;49.704;9.908;2023-06-24T04:22:05;99043.41;;;20.64
27826;BMP280;15077;49.704;9.908;2023-06-24T04:24:30;99049.22;;;20.67
27826;BMP280;15077;49.704;9.908;2023-06-24T04:26:59;99042.78;;;20.74
27826;BMP280;15077;49.704;9.908;2023-06-24T04:29:25;99044.19;;;20.78
27826;BMP280;15077;49.704;9.908;2023-06-24T04:31:50;99050.00;;;20.82
27826;BMP280;15077;49.704;9.908;2023-06-24T04:34:16;99054.84;;;20.86
27826;BMP280;15077;49.704;9.908;2023-06-24T04:36:42;99055.34;;;20.91
27826;BMP280;15077;49.704;9.908;2023-06-24T04:39:07;99061.00;;;20.96
27826;BMP280;15077;49.704;9.908;2023-06-24T04:41:33;99049.66;;;20.98
27826;BMP280;15077;49.704;9.908;2023-06-24T04:43:59;99054.41;;;21.04
27826;BMP280;15077;49.704;9.908;2023-06-24T04:46:25;99051.53;;;21.09
27826;BMP280;15077;49.704;9.908;2023-06-24T04:48:51;99051.94;;;21.15
27826;BMP280;15077;49.704;9.908;2023-06-24T04:51:17;99060.19;;;21.20
27826;BMP280;15077;49.704;9.908;2023-06-24T04:53:42;99056.50;;;21.24
27826;BMP280;15077;49.704;9.908;2023-06-24T04:56:08;99057.91;;;21.28
27826;BMP280;15077;49.704;9.908;2023-06-24T04:58:34;99062.84;;;21.31
27826;BMP280;15077;49.704;9.908;2023-06-24T05:00:59;99061.63;;;21.37
27826;BMP280;15077;49.704;9.908;2023-06-24T05:03:25;99057.91;;;21.41
27826;BMP280;15077;49.704;9.908;2023-06-24T05:05:51;99058.41;;;21.45
27826;BMP280;15077;49.704;9.908;2023-06-24T05:08:17;99059.03;;;21.49
27826;BMP280;15077;49.704;9.908;2023-06-24T05:10:42;99069.03;;;21.53
27826;BMP280;15077;49.704;9.908;2023-06-24T05:13:08;99068.00;;;21.56
27826;BMP280;15077;49.704;9.908;2023-06-24T05:15:36;99081.41;;;21.61
27826;BMP280;15077;49.704;9.908;2023-06-24T05:18:02;99086.25;;;21.65
27826;BMP280;15077;49.704;9.908;2023-06-24T05:20:28;99082.53;;;21.69
27826;BMP280;15077;49.704;9.908;2023-06-24T05:22:54;99085.66;;;21.74
27826;BMP280;15077;49.704;9.908;2023-06-24T05:25:20;99080.97;;;21.79
27826;BMP280;15077;49.704;9.908;2023-06-24T05:27:46;99082.19;;;21.86
27826;BMP280;15077;49.704;9.908;2023-06-24T05:30:12;99082.59;;;21.92
27826;BMP280;15077;49.704;9.908;2023-06-24T05:32:38;99082.97;;;21.99
27826;BMP280;15077;49.704;9.908;2023-06-24T05:35:04;99080.91;;;22.04
27826;BMP280;15077;49.704;9.908;2023-06-24T05:37:30;99090.69;;;22.11
27826;BMP280;15077;49.704;9.908;2023-06-24T05:39:56;99088.47;;;22.18
27826;BMP280;15077;49.704;9.908;2023-06-24T05:42:22;99089.03;;;22.23
27826;BMP280;15077;49.704;9.908;2023-06-24T05:44:48;99088.59;;;22.29
27826;BMP280;15077;49.704;9.908;2023-06-24T05:47:14;99094.22;;;22.34
27826;BMP280;15077;49.704;9.908;2023-06-24T05:49:40;99085.34;;;22.38
27826;BMP280;15077;49.704;9.908;2023-06-24T05:52:08;99085.94;;;22.41
27826;BMP280;15077;49.704;9.908;2023-06-24T05:54:34;99096.63;;;22.47
27826;BMP280;15077;49.704;9.908;2023-06-24T05:57:00;99094.78;;;22.49
27826;BMP280;15077;49.704;9.908;2023-06-24T05:59:25;99091.75;;;22.55
27826;BMP280;15077;49.704;9.908;2023-06-24T06:01:51;99085.22;;;22.62
27826;BMP280;15077;49.704;9.908;2023-06-24T06:04:17;99087.69;;;22.64
27826;BMP280;15077;49.704;9.908;2023-06-24T06:06:42;99084.03;;;22.66
27826;BMP280;15077;49.704;9.908;2023-06-24T06:09:08;99096.72;;;22.69
27826;BMP280;15077;49.704;9.908;2023-06-24T06:11:34;99097.22;;;22.74
27826;BMP280;15077;49.704;9.908;2023-06-24T06:14:00;99094.41;;;22.77
27826;BMP280;15077;49.704;9.908;2023-06-24T06:16:26;99098.50;;;22.80
27826;BMP280;15077;49.704;9.908;2023-06-24T06:18:53;99099.84;;;22.85
27826;BMP280;15077;49.704;9.908;2023-06-24T06:21:19;99101.25;;;22.89
27826;BMP280;15077;49.704;9.908;2023-06-24T06:23:45;99092.31;;;22.93
27826;BMP280;15077;49.704;9.908;2023-06-24T06:26:10;99099.66;;;22.99
27826;BMP280;15077;49.704;9.908;2023-06-24T06:28:36;99088.88;;;23.05
27826;BMP280;15077;49.704;9.908;2023-06-24T06:31:02;99089.34;;;23.10
27826;BMP280;15077;49.704;9.908;2023-06-24T06:33:27;99084.63;;;23.15
27826;BMP280;15077;49.704;9.908;2023-06-24T06:35:53;99080.91;;;23.19
27826;BMP280;15077;49.704;9.908;2023-06-24T06:38:19;99084.78;;;23.24
27826;BMP280;15077;49.704;9.908;2023-06-24T06:40:48;99087.72;;;23.31
27826;BMP280;15077;49.704;9.908;2023-06-24T06:43:16;99089.84;;;23.37
27826;BMP280;15077;49.704;9.908;2023-06-24T06:45:42;99082.53;;;23.41
27826;BMP280;15077;49.704;9.908;2023-06-24T06:48:08;99082.06;;;23.47
27826;BMP280;15077;49.704;9.908;2023-06-24T06:50:34;99076.44;;;23.53
27826;BMP280;15077;49.704;9.908;2023-06-24T06:53:00;99080.19;;;23.60
27826;BMP280;15077;49.704;9.908;2023-06-24T06:55:27;99076.22;;;23.67
27826;BMP280;15077;49.704;9.908;2023-06-24T06:57:53;99073.16;;;23.73
27826;BMP280;15077;49.704;9.908;2023-06-24T07:00:19;99077.84;;;23.79
27826;BMP280;15077;49.704;9.908;2023-06-24T07:02:45;99067.94;;;23.84
27826;BMP280;15077;49.704;9.908;2023-06-24T07:05:10;99066.53;;;23.91
27826;BMP280;15077;49.704;9.908;2023-06-24T07:07:40;99075.34;;;23.99
27826;BMP280;15077;49.704;9.908;2023-06-24T07:10:06;99068.75;;;24.06
27826;BMP280;15077;49.704;9.908;2023-06-24T07:12:32;99068.38;;;24.11
27826;BMP280;15077;49.704;9.908;2023-06-24T07:14:57;99069.63;;;24.16
27826;BMP280;15077;49.704;9.908;2023-06-24T07:17:23;99066.56;;;24.22
27826;BMP280;15077;49.704;9.908;2023-06-24T07:19:52;99072.09;;;24.29
27826;BMP280;15077;49.704;9.908;2023-06-24T07:22:18;99078.44;;;24.36
27826;BMP280;15077;49.704;9.908;2023-06-24T07:24:44;99072.75;;;24.41
27826;BMP280;15077;49.704;9.908;2023-06-24T07:27:09;99071.56;;;24.45
27826;BMP280;15077;49.704;9.908;2023-06-24T07:29:36;99069.44;;;24.50
27826;BMP280;15077;49.704;9.908;2023-06-24T07:32:02;99082.84;;;24.55
27826;BMP280;15077;49.704;9.908;2023-06-24T07:34:29;99070.19;;;24.62
27826;BMP280;15077;49.704;9.908;2023-06-24T07:36:56;99073.13;;;24.68
27826;BMP280;15077;49.704;9.908;2023-06-24T07:39:22;99074.25;;;24.75
27826;BMP280;15077;49.704;9.908;2023-06-24T07:41:48;99079.91;;;24.80
27826;BMP280;15077;49.704;9.908;2023-06-24T07:44:14;99075.16;;;24.85
27826;BMP280;15077;49.704;9.908;2023-06-24T07:46:40;99083.38;;;24.90
27826;BMP280;15077;49.704;9.908;2023-06-24T07:49:07;99071.53;;;24.97
27826;BMP280;15077;49.704;9.908;2023-06-24T07:51:32;99076.56;;;25.09
27826;BMP280;15077;49.704;9.908;2023-06-24T07:54:00;99068.28;;;25.15
27826;BMP280;15077;49.704;9.908;2023-06-24T07:56:26;99074.03;;;25.19
27826;BMP280;15077;49.704;9.908;2023-06-24T07:58:52;99075.41;;;25.23
27826;BMP280;15077;49.704;9.908;2023-06-24T08:01:18;99071.47;;;25.28
27826;BMP280;15077;49.704;9.908;2023-06-24T08:03:44;99070.13;;;25.34
27826;BMP280;15077;49.704;9.908;2023-06-24T08:06:09;99070.47;;;25.40
27826;BMP280;15077;49.704;9.908;2023-06-24T08:08:35;99075.66;;;25.49
27826;BMP280;15077;49.704;9.908;2023-06-24T08:11:03;99075.69;;;25.59
27826;BMP280;15077;49.704;9.908;2023-06-24T08:13:29;99069.75;;;25.68
27826;BMP280;15077;49.704;9.908;2023-06-24T08:15:54;99070.06;;;25.74
27826;BMP280;15077;49.704;9.908;2023-06-24T08:18:20;99069.25;;;25.83
27826;BMP280;15077;49.704;9.908;2023-06-24T08:20:46;99074.47;;;25.92
27826;BMP280;15077;49.704;9.908;2023-06-24T08:23:12;99078.03;;;26.01
27826;BMP280;15077;49.704;9.908;2023-06-24T08:25:37;99077.09;;;26.11
27826;BMP280;15077;49.704;9.908;2023-06-24T08:28:03;99076.97;;;26.22
27826;BMP280;15077;49.704;9.908;2023-06-24T08:30:29;99069.09;;;26.33
27826;BMP280;15077;49.704;9.908;2023-06-24T08:32:55;99070.75;;;26.43
27826;BMP280;15077;49.704;9.908;2023-06-24T08:35:21;99066.38;;;26.53
27826;BMP280;15077;49.704;9.908;2023-06-24T08:37:47;99062.81;;;26.64
27826;BMP280;15077;49.704;9.908;2023-06-24T08:40:12;99072.09;;;26.76
27826;BMP280;15077;49.704;9.908;2023-06-24T08:42:38;99066.72;;;26.87
27826;BMP280;15077;49.704;9.908;2023-06-24T08:45:05;99066.75;;;26.96
27826;BMP280;15077;49.704;9.908;2023-06-24T08:47:31;99065.91;;;27.05
27826;BMP280;15077;49.704;9.908;2023-06-24T08:50:04;99067.13;;;27.10
27826;BMP280;15077;49.704;9.908;2023-06-24T08:52:36;99063.81;;;27.18
27826;BMP280;15077;49.704;9.908;2023-06-24T08:55:04;99069.00;;;27.27
27826;BMP280;15077;49.704;9.908;2023-06-24T08:57:31;99071.56;;;27.37
27826;BMP280;15077;49.704;9.908;2023-06-24T08:59:57;99062.06;;;27.45
27826;BMP280;15077;49.704;9.908;2023-06-24T09:02:22;99056.84;;;27.54
27826;BMP280;15077;49.704;9.908;2023-06-24T09:04:51;99056.66;;;27.65
27826;BMP280;15077;49.704;9.908;2023-06-24T09:07:26;99052.09;;;27.77
27826;BMP280;15077;49.704;9.908;2023-06-24T09:09:53;99058.88;;;27.87
27826;BMP280;15077;49.704;9.908;2023-06-24T09:12:19;99055.41;;;27.96
27826;BMP280;15077;49.704;9.908;2023-06-24T09:14:49;99042.69;;;28.10
27826;BMP280;15077;49.704;9.908;2023-06-24T09:17:18;99047.72;;;28.21
27826;BMP280;15077;49.704;9.908;2023-06-24T09:19:44;99053.69;;;28.31
27826;BMP280;15077;49.704;9.908;2023-06-24T09:22:10;99048.06;;;28.43
27826;BMP280;15077;49.704;9.908;2023-06-24T09:24:42;99039.72;;;28.57
27826;BMP280;15077;49.704;9.908;2023-06-24T09:27:07;99036.75;;;28.70
27826;BMP280;15077;49.704;9.908;2023-06-24T09:29:35;99041.25;;;28.85
27826;BMP280;15077;49.704;9.908;2023-06-24T09:32:05;99032.19;;;28.97
27826;BMP280;15077;49.704;9.908;2023-06-24T09:34:32;99031.59;;;29.03
27826;BMP280;15077;49.704;9.908;2023-06-24T09:36:59;99025.63;;;29.10
27826;BMP280;15077;49.704;9.908;2023-06-24T09:39:26;99020.56;;;29.17
27826;BMP280;15077;49.704;9.908;2023-06-24T09:42:01;99027.66;;;29.24
27826;BMP280;15077;49.704;9.908;2023-06-24T09:44:28;99018.09;;;29.33
27826;BMP280;15077;49.704;9.908;2023-06-24T09:46:55;99020.09;;;29.46
27826;BMP280;15077;49.704;9.908;2023-06-24T09:49:24;99018.34;;;29.55
27826;BMP280;15077;49.704;9.908;2023-06-24T09:51:56;99016.91;;;29.60
27826;BMP280;15077;49.704;9.908;2023-06-24T09:54:27;99019.53;;;29.68
27826;BMP280;15077;49.704;9.908;2023-06-24T09:57:02;99013.66;;;29.74
27826;BMP280;15077;49.704;9.908;2023-06-24T09:59:30;99009.72;;;29.62
27826;BMP280;15077;49.704;9.908;2023-06-24T10:01:57;99018.63;;;29.85
27826;BMP280;15077;49.704;9.908;2023-06-24T10:04:24;99003.44;;;29.96
27826;BMP280;15077;49.704;9.908;2023-06-24T10:06:51;99002.31;;;30.07
27826;BMP280;15077;49.704;9.908;2023-06-24T10:09:17;99001.34;;;30.16
27826;BMP280;15077;49.704;9.908;2023-06-24T10:11:46;99003.50;;;30.28
27826;BMP280;15077;49.704;9.908;2023-06-24T10:14:12;99005.81;;;30.39
27826;BMP280;15077;49.704;9.908;2023-06-24T10:16:40;98993.56;;;30.47
27826;BMP280;15077;49.704;9.908;2023-06-24T10:19:06;98999.44;;;30.57
27826;BMP280;15077;49.704;9.908;2023-06-24T10:21:52;98987.47;;;30.63
27826;BMP280;15077;49.704;9.908;2023-06-24T10:24:39;98978.78;;;30.70
27826;BMP280;15077;49.704;9.908;2023-06-24T10:27:16;98993.50;;;30.79
27826;BMP280;15077;49.704;9.908;2023-06-24T10:29:50;98979.16;;;30.91
27826;BMP280;15077;49.704;9.908;2023-06-24T10:32:18;98983.53;;;30.98
27826;BMP280;15077;49.704;9.908;2023-06-24T10:34:46;98980.41;;;31.03
27826;BMP280;15077;49.704;9.908;2023-06-24T10:37:26;98975.13;;;31.11
27826;BMP280;15077;49.704;9.908;2023-06-24T10:39:57;98973.97;;;31.21
27826;BMP280;15077;49.704;9.908;2023-06-24T10:42:39;98976.69;;;31.28
27826;BMP280;15077;49.704;9.908;2023-06-24T10:47:45;98973.06;;;31.44
27826;BMP280;15077;49.704;9.908;2023-06-24T10:50:18;98961.56;;;31.53
27826;BMP280;15077;49.704;9.908;2023-06-24T10:52:49;98971.66;;;31.64
27826;BMP280;15077;49.704;9.908;2023-06-24T10:55:19;98965.38;;;31.73
27826;BMP280;15077;49.704;9.908;2023-06-24T10:57:45;98951.88;;;31.84
27826;BMP280;15077;49.704;9.908;2023-06-24T11:00:13;98951.50;;;31.95
27826;BMP280;15077;49.704;9.908;2023-06-24T11:02:41;98953.06;;;32.04
27826;BMP280;15077;49.704;9.908;2023-06-24T11:05:08;98948.41;;;32.14
27826;BMP280;15077;49.704;9.908;2023-06-24T11:07:37;98936.84;;;32.23
27826;BMP280;15077;49.704;9.908;2023-06-24T11:10:10;98937.97;;;32.28
27826;BMP280;15077;49.704;9.908;2023-06-24T11:12:38;98933.63;;;32.35
27826;BMP280;15077;49.704;9.908;2023-06-24T11:15:07;98936.03;;;32.44
27826;BMP280;15077;49.704;9.908;2023-06-24T11:17:34;98935.31;;;32.50
27826;BMP280;15077;49.704;9.908;2023-06-24T11:20:11;98924.09;;;32.56
27826;BMP280;15077;49.704;9.908;2023-06-24T11:22:40;98935.53;;;32.63
27826;BMP280;15077;49.704;9.908;2023-06-24T11:25:12;98935.97;;;32.67
27826;BMP280;15077;49.704;9.908;2023-06-24T11:27:39;98933.78;;;32.70
27826;BMP280;15077;49.704;9.908;2023-06-24T11:30:06;98937.34;;;32.77
27826;BMP280;15077;49.704;9.908;2023-06-24T11:32:41;98923.66;;;32.82
27826;BMP280;15077;49.704;9.908;2023-06-24T11:35:10;98925.84;;;32.78
27826;BMP280;15077;49.704;9.908;2023-06-24T11:37:46;98928.09;;;32.81
27826;BMP280;15077;49.704;9.908;2023-06-24T11:40:15;98921.22;;;32.80
27826;BMP280;15077;49.704;9.908;2023-06-24T11:42:45;98923.47;;;32.83
27826;BMP280;15077;49.704;9.908;2023-06-24T11:45:14;98918.34;;;32.89
27826;BMP280;15077;49.704;9.908;2023-06-24T11:47:42;98919.25;;;32.96
27826;BMP280;15077;49.704;9.908;2023-06-24T11:50:09;98916.72;;;33.03
27826;BMP280;15077;49.704;9.908;2023-06-24T11:52:46;98911.97;;;33.13
27826;BMP280;15077;49.704;9.908;2023-06-24T11:57:49;98911.16;;;33.27
27826;BMP280;15077;49.704;9.908;2023-06-24T12:00:16;98911.41;;;33.32
27826;BMP280;15077;49.704;9.908;2023-06-24T12:02:41;98912.94;;;33.40
27826;BMP280;15077;49.704;9.908;2023-06-24T12:05:07;98907.16;;;33.45
27826;BMP280;15077;49.704;9.908;2023-06-24T12:07:34;98912.50;;;33.51
27826;BMP280;15077;49.704;9.908;2023-06-24T12:10:00;98908.09;;;33.58
27826;BMP280;15077;49.704;9.908;2023-06-24T12:12:25;98908.56;;;33.62
27826;BMP280;15077;49.704;9.908;2023-06-24T12:14:51;98902.13;;;33.64
27826;BMP280;15077;49.704;9.908;2023-06-24T12:17:17;98897.72;;;33.71
27826;BMP280;15077;49.704;9.908;2023-06-24T12:19:42;98900.16;;;33.73
27826;BMP280;15077;49.704;9.908;2023-06-24T12:22:09;98894.72;;;33.74
27826;BMP280;15077;49.704;9.908;2023-06-24T12:24:34;98888.84;;;33.72
27826;BMP280;15077;49.704;9.908;2023-06-24T12:27:00;98881.72;;;33.66
27826;BMP280;15077;49.704;9.908;2023-06-24T12:29:26;98880.22;;;33.57
27826;BMP280;15077;49.704;9.908;2023-06-24T12:31:51;98881.56;;;33.53
27826;BMP280;15077;49.704;9.908;2023-06-24T12:34:17;98881.16;;;33.50
27826;BMP280;15077;49.704;9.908;2023-06-24T12:36:43;98879.69;;;33.47
27826;BMP280;15077;49.704;9.908;2023-06-24T12:39:08;98878.50;;;33.50
27826;BMP280;15077;49.704;9.908;2023-06-24T12:41:34;98868.44;;;33.53
27826;BMP280;15077;49.704;9.908;2023-06-24T12:44:00;98875.38;;;33.61
27826;BMP280;15077;49.704;9.908;2023-06-24T12:46:26;98868.19;;;33.69
27826;BMP280;15077;49.704;9.908;2023-06-24T12:48:51;98856.91;;;33.75
27826;BMP280;15077;49.704;9.908;2023-06-24T12:51:17;98859.75;;;33.74
27826;BMP280;15077;49.704;9.908;2023-06-24T12:53:45;98855.28;;;33.74
27826;BMP280;15077;49.704;9.908;2023-06-24T12:56:11;98857.09;;;33.74
27826;BMP280;15077;49.704;9.908;2023-06-24T12:58:37;98859.75;;;33.74
27826;BMP280;15077;49.704;9.908;2023-06-24T13:01:03;98850.41;;;33.71
27826;BMP280;15077;49.704;9.908;2023-06-24T13:03:29;98856.88;;;33.69
27826;BMP280;15077;49.704;9.908;2023-06-24T13:05:54;98857.25;;;33.66
27826;BMP280;15077;49.704;9.908;2023-06-24T13:08:20;98850.53;;;33.63
27826;BMP280;15077;49.704;9.908;2023-06-24T13:10:46;98842.66;;;33.63
27826;BMP280;15077;49.704;9.908;2023-06-24T13:13:15;98849.09;;;33.61
27826;BMP280;15077;49.704;9.908;2023-06-24T13:15:41;98834.13;;;33.61
27826;BMP280;15077;49.704;9.908;2023-06-24T13:18:06;98833.41;;;33.67
27826;BMP280;15077;49.704;9.908;2023-06-24T13:20:32;98835.00;;;33.68
27826;BMP280;15077;49.704;9.908;2023-06-24T13:22:58;98832.63;;;33.73
27826;BMP280;15077;49.704;9.908;2023-06-24T13:25:24;98838.75;;;33.80
27826;BMP280;15077;49.704;9.908;2023-06-24T13:27:50;98835.72;;;33.83
27826;BMP280;15077;49.704;9.908;2023-06-24T13:30:15;98835.53;;;33.85
27826;BMP280;15077;49.704;9.908;2023-06-24T13:32:41;98834.34;;;33.87
27826;BMP280;15077;49.704;9.908;2023-06-24T13:35:09;98833.00;;;33.91
27826;BMP280;15077;49.704;9.908;2023-06-24T13:37:34;98832.44;;;33.95
27826;BMP280;15077;49.704;9.908;2023-06-24T13:40:00;98837.72;;;33.95
27826;BMP280;15077;49.704;9.908;2023-06-24T13:42:26;98826.34;;;33.95
27826;BMP280;15077;49.704;9.908;2023-06-24T13:44:52;98826.34;;;33.95
27826;BMP280;15077;49.704;9.908;2023-06-24T13:47:18;98821.09;;;33.95
27826;BMP280;15077;49.704;9.908;2023-06-24T13:49:43;98821.75;;;33.97
27826;BMP280;15077;49.704;9.908;2023-06-24T13:52:09;98822.72;;;33.96
27826;BMP280;15077;49.704;9.908;2023-06-24T13:54:35;98822.91;;;33.94
27826;BMP280;15077;49.704;9.908;2023-06-24T13:57:01;98825.47;;;33.88
27826;BMP280;15077;49.704;9.908;2023-06-24T13:59:27;98831.13;;;33.85
27826;BMP280;15077;49.704;9.908;2023-06-24T14:01:53;98825.84;;;33.85
27826;BMP280;15077;49.704;9.908;2023-06-24T14:04:19;98828.50;;;33.85
27826;BMP280;15077;49.704;9.908;2023-06-24T14:06:44;98825.28;;;33.89
27826;BMP280;15077;49.704;9.908;2023-06-24T14:09:12;98820.47;;;33.93
27826;BMP280;15077;49.704;9.908;2023-06-24T14:11:38;98813.66;;;33.98
27826;BMP280;15077;49.704;9.908;2023-06-24T14:14:03;98813.88;;;34.03
27826;BMP280;15077;49.704;9.908;2023-06-24T14:16:29;98806.84;;;34.10
27826;BMP280;15077;49.704;9.908;2023-06-24T14:18:55;98804.91;;;34.19
27826;BMP280;15077;49.704;9.908;2023-06-24T14:21:21;98799.44;;;34.20
27826;BMP280;15077;49.704;9.908;2023-06-24T14:23:46;98795.41;;;34.24
27826;BMP280;15077;49.704;9.908;2023-06-24T14:26:12;98801.53;;;34.31